Ceylon — 9VMU6 — position and weather

sailwx.info

Track history (hours):
 
Tides and Currents Weather Stations Pressure Air Temp Water Temp Dewpoint Dewpoint Depression Visibility Wind Speed Wind Dir Waves Ship Positions

Ceylon

Last reported at 2014-Oct-10 19:16 UTC. Time now 2014-Oct-31 13:03 UTC.
Position N 30°00' W 090°28'.
Warning: this ship's position is 20 days out of date.

Length 180 m; draft 11.2 m.

Type: Tanker. MMSI: 563847000.

Date/timePositionNaut miles runAvg speedWind from/ knotsBaromVisibWave heightAir tempDewpointWater temp
2014-Oct-10 19:16N 30°00' W 090°28'7 9.1
2014-Oct-10 18:33N 30°03' W 090°35'16 2.2
2014-Oct-10 11:16N 30°05' W 090°54'6 0.6
2014-Oct-10 00:18N 29°59' W 090°50'9 8.3
2014-Oct-09 23:15N 30°03' W 090°40'4 5.1
2014-Oct-09 22:29N 30°03' W 090°36'0 0.0
2014-Oct-09 21:32N 30°03' W 090°36'0 0.0
2014-Oct-09 20:29N 30°03' W 090°36'0 0.0
2014-Oct-09 19:32N 30°03' W 090°36'0 0.0
2014-Oct-09 18:32N 30°03' W 090°36'0 0.0
2014-Oct-09 17:32N 30°03' W 090°36'0 0.0
2014-Oct-09 16:29N 30°03' W 090°36'0 0.0
2014-Oct-09 15:32N 30°03' W 090°36'0 0.0
2014-Oct-09 14:32N 30°03' W 090°36'0 0.0
2014-Oct-09 13:32N 30°03' W 090°36'0 0.0
2014-Oct-09 12:26N 30°03' W 090°36'0 0.0
2014-Oct-09 11:32N 30°03' W 090°36'0 0.0
2014-Oct-09 10:32N 30°03' W 090°36'0 0.0
2014-Oct-09 09:29N 30°03' W 090°36'0 0.0
2014-Oct-09 08:32N 30°03' W 090°36'0 0.0
2014-Oct-09 07:32N 30°03' W 090°36'0 0.0
2014-Oct-09 06:32N 30°03' W 090°36'0 0.0
2014-Oct-09 05:29N 30°03' W 090°36'0 0.0
2014-Oct-09 04:29N 30°03' W 090°36'0 0.0
2014-Oct-09 03:32N 30°03' W 090°36'0 0.0
2014-Oct-09 02:29N 30°03' W 090°36'0 0.0
2014-Oct-09 01:32N 30°03' W 090°36'0 0.0
2014-Oct-09 00:29N 30°03' W 090°36'0 0.0
2014-Oct-08 23:32N 30°03' W 090°36'0 0.0
2014-Oct-08 22:32N 30°03' W 090°36'0 0.0
2014-Oct-08 21:29N 30°03' W 090°36'0 0.0
2014-Oct-08 20:32N 30°03' W 090°36'0 0.0
2014-Oct-08 19:29N 30°03' W 090°36'0 0.0
2014-Oct-08 18:32N 30°03' W 090°36'0 0.0
2014-Oct-08 17:29N 30°03' W 090°36'0 0.0
2014-Oct-08 16:29N 30°03' W 090°36'0 0.0
2014-Oct-08 15:29N 30°03' W 090°36'0 0.0
2014-Oct-08 14:29N 30°03' W 090°36'0 0.0
2014-Oct-08 13:32N 30°03' W 090°36'0 0.0
2014-Oct-08 12:32N 30°03' W 090°36'3 3.4
2014-Oct-08 11:33N 30°03' W 090°32'8 8.2
2014-Oct-08 10:33N 29°59' W 090°24'8 7.8
2014-Oct-08 09:31N 29°58' W 090°15'7 6.5
2014-Oct-08 08:30N 29°55' W 090°08'8 7.4
2014-Oct-08 07:28N 29°56' W 089°59'4 3.8
2014-Oct-08 06:24N 29°52' W 089°59'  
Track history (hours):
 
Tides and Currents Weather Stations Pressure Air Temp Water Temp Dewpoint Dewpoint Depression Visibility Wind Speed Wind Dir Waves Ship Positions

Ceylon

Last reported at 2014-Oct-10 19:16 UTC. Time now 2014-Oct-31 13:03 UTC.
Position N 30°00' W 090°28'.
Warning: this ship's position is 20 days out of date.

Length 180 m; draft 11.2 m.

Type: Tanker. MMSI: 563847000.

Date/timePositionNaut miles runAvg speedWind from/ knotsBaromVisibWave heightAir tempDewpointWater temp
2014-Oct-10 19:16N 30°00' W 090°28'7 9.1
2014-Oct-10 18:33N 30°03' W 090°35'16 2.2
2014-Oct-10 11:16N 30°05' W 090°54'6 0.6
2014-Oct-10 00:18N 29°59' W 090°50'9 8.3
2014-Oct-09 23:15N 30°03' W 090°40'4 5.1
2014-Oct-09 22:29N 30°03' W 090°36'0 0.0
2014-Oct-09 21:32N 30°03' W 090°36'0 0.0
2014-Oct-09 20:29N 30°03' W 090°36'0 0.0
2014-Oct-09 19:32N 30°03' W 090°36'0 0.0
2014-Oct-09 18:32N 30°03' W 090°36'0 0.0
2014-Oct-09 17:32N 30°03' W 090°36'0 0.0
2014-Oct-09 16:29N 30°03' W 090°36'0 0.0
2014-Oct-09 15:32N 30°03' W 090°36'0 0.0
2014-Oct-09 14:32N 30°03' W 090°36'0 0.0
2014-Oct-09 13:32N 30°03' W 090°36'0 0.0
2014-Oct-09 12:26N 30°03' W 090°36'0 0.0
2014-Oct-09 11:32N 30°03' W 090°36'0 0.0
2014-Oct-09 10:32N 30°03' W 090°36'0 0.0
2014-Oct-09 09:29N 30°03' W 090°36'0 0.0
2014-Oct-09 08:32N 30°03' W 090°36'0 0.0
2014-Oct-09 07:32N 30°03' W 090°36'0 0.0
2014-Oct-09 06:32N 30°03' W 090°36'0 0.0
2014-Oct-09 05:29N 30°03' W 090°36'0 0.0
2014-Oct-09 04:29N 30°03' W 090°36'0 0.0
2014-Oct-09 03:32N 30°03' W 090°36'0 0.0
2014-Oct-09 02:29N 30°03' W 090°36'0 0.0
2014-Oct-09 01:32N 30°03' W 090°36'0 0.0
2014-Oct-09 00:29N 30°03' W 090°36'0 0.0
2014-Oct-08 23:32N 30°03' W 090°36'0 0.0
2014-Oct-08 22:32N 30°03' W 090°36'0 0.0
2014-Oct-08 21:29N 30°03' W 090°36'0 0.0
2014-Oct-08 20:32N 30°03' W 090°36'0 0.0
2014-Oct-08 19:29N 30°03' W 090°36'0 0.0
2014-Oct-08 18:32N 30°03' W 090°36'0 0.0
2014-Oct-08 17:29N 30°03' W 090°36'0 0.0
2014-Oct-08 16:29N 30°03' W 090°36'0 0.0
2014-Oct-08 15:29N 30°03' W 090°36'0 0.0
2014-Oct-08 14:29N 30°03' W 090°36'0 0.0
2014-Oct-08 13:32N 30°03' W 090°36'0 0.0
2014-Oct-08 12:32N 30°03' W 090°36'3 3.4
2014-Oct-08 11:33N 30°03' W 090°32'8 8.2
2014-Oct-08 10:33N 29°59' W 090°24'8 7.8
2014-Oct-08 09:31N 29°58' W 090°15'7 6.5
2014-Oct-08 08:30N 29°55' W 090°08'8 7.4
2014-Oct-08 07:28N 29°56' W 089°59'4 3.8
2014-Oct-08 06:24N 29°52' W 089°59'  

Dump ship's entire track history